Terminal Aerodrome Forecast
Issued by NWS

Home | Current Version | Previous Version | Text Only | Print | Product List | Glossary On
Versions: 1 2 3 4 5 6 7 8 9 10 11 12 13 14 15 16 17 18 19 20 21 22 23 24 25 26 27 28 29 30 31 32 33 34 35
739
FTUS46 KLOX 222018 AAB
TAFOXR
TAF AMD
KOXR 222018Z 2220/2318 06014KT 1SM RA BR BKN021 OVC027
     FM222300 23015G25KT 4SM -RA BKN012 OVC025
     FM230200 28015G25KT 4SM -RA BKN012 OVC025
     FM230800 24012KT 4SM -SHRA BR OVC025 PROB30 2308/2312 4SM -TSRA
      BKN025CB=

USA.gov is the U.S. government's official web portal to all federal, state and local government web resources and services.